sensor_id;sensor_type;location;lat;lon;timestamp;P1;durP1;ratioP1;P2;durP2;ratioP2
67762;SDS011;54566;52.022;5.582;2023-09-08T00:00:58;12.95;;;9.05;;
67762;SDS011;54566;52.022;5.582;2023-09-08T00:03:24;10.95;;;8.13;;
67762;SDS011;54566;52.022;5.582;2023-09-08T00:05:50;11.90;;;9.73;;
67762;SDS011;54566;52.022;5.582;2023-09-08T00:08:16;12.25;;;9.85;;
67762;SDS011;54566;52.022;5.582;2023-09-08T00:10:42;15.85;;;9.55;;
67762;SDS011;54566;52.022;5.582;2023-09-08T00:13:09;18.10;;;9.43;;
67762;SDS011;54566;52.022;5.582;2023-09-08T00:15:36;16.00;;;9.73;;
67762;SDS011;54566;52.022;5.582;2023-09-08T00:18:02;11.50;;;8.88;;
67762;SDS011;54566;52.022;5.582;2023-09-08T00:20:28;13.55;;;9.38;;
67762;SDS011;54566;52.022;5.582;2023-09-08T00:22:54;14.38;;;10.32;;
67762;SDS011;54566;52.022;5.582;2023-09-08T00:25:20;17.45;;;10.85;;
67762;SDS011;54566;52.022;5.582;2023-09-08T00:27:46;19.63;;;9.90;;
67762;SDS011;54566;52.022;5.582;2023-09-08T00:30:12;15.23;;;9.90;;
67762;SDS011;54566;52.022;5.582;2023-09-08T00:32:38;15.13;;;9.13;;
67762;SDS011;54566;52.022;5.582;2023-09-08T00:35:10;12.60;;;8.88;;
67762;SDS011;54566;52.022;5.582;2023-09-08T00:37:37;15.57;;;9.82;;
67762;SDS011;54566;52.022;5.582;2023-09-08T00:40:03;13.45;;;9.23;;
67762;SDS011;54566;52.022;5.582;2023-09-08T00:42:29;19.05;;;10.48;;
67762;SDS011;54566;52.022;5.582;2023-09-08T00:44:57;13.20;;;10.20;;
67762;SDS011;54566;52.022;5.582;2023-09-08T00:47:23;12.10;;;8.93;;
67762;SDS011;54566;52.022;5.582;2023-09-08T00:49:49;13.63;;;10.38;;
67762;SDS011;54566;52.022;5.582;2023-09-08T00:52:16;18.30;;;9.53;;
67762;SDS011;54566;52.022;5.582;2023-09-08T00:54:42;16.27;;;9.52;;
67762;SDS011;54566;52.022;5.582;2023-09-08T00:57:09;14.05;;;10.38;;
67762;SDS011;54566;52.022;5.582;2023-09-08T00:59:35;15.10;;;9.95;;
67762;SDS011;54566;52.022;5.582;2023-09-08T01:02:02;17.02;;;10.57;;
67762;SDS011;54566;52.022;5.582;2023-09-08T01:04:28;15.30;;;9.90;;
67762;SDS011;54566;52.022;5.582;2023-09-08T01:06:55;14.32;;;9.45;;
67762;SDS011;54566;52.022;5.582;2023-09-08T01:09:22;16.67;;;10.18;;
67762;SDS011;54566;52.022;5.582;2023-09-08T01:11:48;13.50;;;9.70;;
67762;SDS011;54566;52.022;5.582;2023-09-08T01:14:17;12.70;;;9.25;;
67762;SDS011;54566;52.022;5.582;2023-09-08T01:16:44;14.10;;;9.45;;
67762;SDS011;54566;52.022;5.582;2023-09-08T01:19:11;16.00;;;9.35;;
67762;SDS011;54566;52.022;5.582;2023-09-08T01:24:57;17.88;;;10.45;;
67762;SDS011;54566;52.022;5.582;2023-09-08T01:27:10;14.40;;;10.63;;
67762;SDS011;54566;52.022;5.582;2023-09-08T01:29:39;19.38;;;11.27;;
67762;SDS011;54566;52.022;5.582;2023-09-08T01:32:06;21.60;;;11.47;;
67762;SDS011;54566;52.022;5.582;2023-09-08T01:34:32;19.63;;;10.27;;
67762;SDS011;54566;52.022;5.582;2023-09-08T01:36:58;19.50;;;10.45;;
67762;SDS011;54566;52.022;5.582;2023-09-08T01:39:27;15.73;;;10.65;;
67762;SDS011;54566;52.022;5.582;2023-09-08T01:41:53;15.70;;;10.98;;
67762;SDS011;54566;52.022;5.582;2023-09-08T01:44:19;17.88;;;10.75;;
67762;SDS011;54566;52.022;5.582;2023-09-08T01:46:45;17.83;;;10.77;;
67762;SDS011;54566;52.022;5.582;2023-09-08T01:49:11;19.65;;;11.68;;
67762;SDS011;54566;52.022;5.582;2023-09-08T01:51:37;14.23;;;10.98;;
67762;SDS011;54566;52.022;5.582;2023-09-08T01:54:04;12.98;;;10.82;;
67762;SDS011;54566;52.022;5.582;2023-09-08T01:56:30;18.15;;;12.15;;
67762;SDS011;54566;52.022;5.582;2023-09-08T01:58:56;21.42;;;11.95;;
67762;SDS011;54566;52.022;5.582;2023-09-08T02:01:22;17.05;;;11.90;;
67762;SDS011;54566;52.022;5.582;2023-09-08T02:03:48;14.15;;;10.60;;
67762;SDS011;54566;52.022;5.582;2023-09-08T02:06:14;15.15;;;11.85;;
67762;SDS011;54566;52.022;5.582;2023-09-08T02:08:40;16.45;;;11.68;;
67762;SDS011;54566;52.022;5.582;2023-09-08T02:11:06;17.10;;;11.38;;
67762;SDS011;54566;52.022;5.582;2023-09-08T02:13:32;20.33;;;11.95;;
67762;SDS011;54566;52.022;5.582;2023-09-08T02:15:58;18.45;;;12.45;;
67762;SDS011;54566;52.022;5.582;2023-09-08T02:18:25;15.27;;;12.00;;
67762;SDS011;54566;52.022;5.582;2023-09-08T02:20:51;19.20;;;12.10;;
67762;SDS011;54566;52.022;5.582;2023-09-08T02:23:17;16.50;;;12.35;;
67762;SDS011;54566;52.022;5.582;2023-09-08T02:25:43;16.98;;;12.30;;
67762;SDS011;54566;52.022;5.582;2023-09-08T02:28:09;25.13;;;13.32;;
67762;SDS011;54566;52.022;5.582;2023-09-08T02:30:35;17.70;;;12.73;;
67762;SDS011;54566;52.022;5.582;2023-09-08T02:33:01;18.63;;;12.32;;
67762;SDS011;54566;52.022;5.582;2023-09-08T02:35:28;18.67;;;12.55;;
67762;SDS011;54566;52.022;5.582;2023-09-08T02:37:54;21.88;;;12.13;;
67762;SDS011;54566;52.022;5.582;2023-09-08T02:40:20;20.17;;;12.30;;
67762;SDS011;54566;52.022;5.582;2023-09-08T02:42:46;20.63;;;11.57;;
67762;SDS011;54566;52.022;5.582;2023-09-08T02:45:12;18.52;;;12.07;;
67762;SDS011;54566;52.022;5.582;2023-09-08T02:47:38;15.52;;;12.07;;
67762;SDS011;54566;52.022;5.582;2023-09-08T02:50:04;12.68;;;11.07;;
67762;SDS011;54566;52.022;5.582;2023-09-08T02:52:31;19.08;;;12.45;;
67762;SDS011;54566;52.022;5.582;2023-09-08T02:54:57;22.92;;;13.25;;
67762;SDS011;54566;52.022;5.582;2023-09-08T02:57:23;21.63;;;13.77;;
67762;SDS011;54566;52.022;5.582;2023-09-08T02:59:50;19.00;;;13.30;;
67762;SDS011;54566;52.022;5.582;2023-09-08T03:02:16;20.65;;;13.15;;
67762;SDS011;54566;52.022;5.582;2023-09-08T03:04:42;16.85;;;13.10;;
67762;SDS011;54566;52.022;5.582;2023-09-08T03:07:08;20.67;;;13.27;;
67762;SDS011;54566;52.022;5.582;2023-09-08T03:09:37;23.85;;;14.20;;
67762;SDS011;54566;52.022;5.582;2023-09-08T03:12:03;20.05;;;13.75;;
67762;SDS011;54566;52.022;5.582;2023-09-08T03:14:29;15.65;;;12.57;;
67762;SDS011;54566;52.022;5.582;2023-09-08T03:16:55;19.45;;;13.68;;
67762;SDS011;54566;52.022;5.582;2023-09-08T03:19:21;19.45;;;13.35;;
67762;SDS011;54566;52.022;5.582;2023-09-08T03:21:47;21.58;;;13.80;;
67762;SDS011;54566;52.022;5.582;2023-09-08T03:24:13;15.05;;;12.48;;
67762;SDS011;54566;52.022;5.582;2023-09-08T03:26:39;21.42;;;14.57;;
67762;SDS011;54566;52.022;5.582;2023-09-08T03:29:06;23.02;;;14.68;;
67762;SDS011;54566;52.022;5.582;2023-09-08T03:31:32;20.88;;;15.00;;
67762;SDS011;54566;52.022;5.582;2023-09-08T03:33:58;19.20;;;13.30;;
67762;SDS011;54566;52.022;5.582;2023-09-08T03:36:24;17.33;;;13.57;;
67762;SDS011;54566;52.022;5.582;2023-09-08T03:38:50;21.08;;;13.23;;
67762;SDS011;54566;52.022;5.582;2023-09-08T03:41:16;21.13;;;13.63;;
67762;SDS011;54566;52.022;5.582;2023-09-08T03:43:42;19.00;;;12.88;;
67762;SDS011;54566;52.022;5.582;2023-09-08T03:46:08;17.50;;;14.07;;
67762;SDS011;54566;52.022;5.582;2023-09-08T03:48:37;17.88;;;14.55;;
67762;SDS011;54566;52.022;5.582;2023-09-08T03:51:03;20.48;;;14.77;;
67762;SDS011;54566;52.022;5.582;2023-09-08T03:53:29;20.25;;;15.57;;
67762;SDS011;54566;52.022;5.582;2023-09-08T03:55:55;20.50;;;14.30;;
67762;SDS011;54566;52.022;5.582;2023-09-08T03:58:21;23.17;;;14.20;;
67762;SDS011;54566;52.022;5.582;2023-09-08T04:00:47;17.85;;;14.18;;
67762;SDS011;54566;52.022;5.582;2023-09-08T04:03:13;20.60;;;14.13;;
67762;SDS011;54566;52.022;5.582;2023-09-08T04:05:39;20.35;;;14.35;;
67762;SDS011;54566;52.022;5.582;2023-09-08T04:08:05;22.33;;;15.32;;
67762;SDS011;54566;52.022;5.582;2023-09-08T04:10:31;20.65;;;14.55;;
67762;SDS011;54566;52.022;5.582;2023-09-08T04:12:57;26.98;;;15.23;;
67762;SDS011;54566;52.022;5.582;2023-09-08T04:15:23;22.05;;;15.27;;
67762;SDS011;54566;52.022;5.582;2023-09-08T04:17:49;20.73;;;13.75;;
67762;SDS011;54566;52.022;5.582;2023-09-08T04:20:15;18.90;;;14.50;;
67762;SDS011;54566;52.022;5.582;2023-09-08T04:22:41;22.75;;;14.65;;
67762;SDS011;54566;52.022;5.582;2023-09-08T04:25:07;20.55;;;14.43;;
67762;SDS011;54566;52.022;5.582;2023-09-08T04:27:34;22.85;;;14.90;;
67762;SDS011;54566;52.022;5.582;2023-09-08T04:30:02;20.83;;;15.25;;
67762;SDS011;54566;52.022;5.582;2023-09-08T04:32:28;20.52;;;14.52;;
67762;SDS011;54566;52.022;5.582;2023-09-08T04:34:54;21.52;;;14.85;;
67762;SDS011;54566;52.022;5.582;2023-09-08T04:37:20;25.63;;;14.60;;
67762;SDS011;54566;52.022;5.582;2023-09-08T04:39:46;20.88;;;14.32;;
67762;SDS011;54566;52.022;5.582;2023-09-08T04:42:12;22.77;;;14.48;;
67762;SDS011;54566;52.022;5.582;2023-09-08T04:44:38;18.48;;;14.02;;
67762;SDS011;54566;52.022;5.582;2023-09-08T04:47:06;21.08;;;12.73;;
67762;SDS011;54566;52.022;5.582;2023-09-08T04:49:35;21.70;;;13.50;;
67762;SDS011;54566;52.022;5.582;2023-09-08T04:52:02;21.83;;;14.50;;
67762;SDS011;54566;52.022;5.582;2023-09-08T04:54:28;20.05;;;14.00;;
67762;SDS011;54566;52.022;5.582;2023-09-08T04:56:55;20.98;;;13.77;;
67762;SDS011;54566;52.022;5.582;2023-09-08T04:59:21;19.98;;;13.60;;
67762;SDS011;54566;52.022;5.582;2023-09-08T05:01:52;22.60;;;14.15;;
67762;SDS011;54566;52.022;5.582;2023-09-08T05:04:18;17.17;;;13.32;;
67762;SDS011;54566;52.022;5.582;2023-09-08T05:06:48;18.67;;;14.07;;
67762;SDS011;54566;52.022;5.582;2023-09-08T05:09:14;18.00;;;12.68;;
67762;SDS011;54566;52.022;5.582;2023-09-08T05:11:49;19.95;;;13.25;;
67762;SDS011;54566;52.022;5.582;2023-09-08T05:14:15;19.40;;;13.52;;
67762;SDS011;54566;52.022;5.582;2023-09-08T05:16:41;27.58;;;13.25;;
67762;SDS011;54566;52.022;5.582;2023-09-08T05:19:12;22.65;;;13.43;;
67762;SDS011;54566;52.022;5.582;2023-09-08T05:21:39;17.92;;;12.48;;
67762;SDS011;54566;52.022;5.582;2023-09-08T05:24:09;27.02;;;14.23;;
67762;SDS011;54566;52.022;5.582;2023-09-08T05:26:36;21.13;;;14.32;;
67762;SDS011;54566;52.022;5.582;2023-09-08T05:29:06;20.08;;;13.77;;
67762;SDS011;54566;52.022;5.582;2023-09-08T05:31:35;19.75;;;14.60;;
67762;SDS011;54566;52.022;5.582;2023-09-08T05:34:01;28.13;;;13.43;;
67762;SDS011;54566;52.022;5.582;2023-09-08T05:36:28;31.42;;;13.60;;
67762;SDS011;54566;52.022;5.582;2023-09-08T05:38:55;23.25;;;15.30;;
67762;SDS011;54566;52.022;5.582;2023-09-08T05:41:21;22.38;;;14.55;;
67762;SDS011;54566;52.022;5.582;2023-09-08T05:43:50;21.83;;;14.27;;
67762;SDS011;54566;52.022;5.582;2023-09-08T05:46:16;23.50;;;13.98;;
67762;SDS011;54566;52.022;5.582;2023-09-08T05:48:43;26.17;;;14.77;;
67762;SDS011;54566;52.022;5.582;2023-09-08T05:51:09;26.42;;;13.50;;
67762;SDS011;54566;52.022;5.582;2023-09-08T05:53:35;21.70;;;13.48;;
67762;SDS011;54566;52.022;5.582;2023-09-08T05:56:05;18.80;;;13.73;;
67762;SDS011;54566;52.022;5.582;2023-09-08T05:58:31;17.65;;;13.63;;
67762;SDS011;54566;52.022;5.582;2023-09-08T06:01:02;24.75;;;13.38;;
67762;SDS011;54566;52.022;5.582;2023-09-08T06:04:02;26.80;;;12.05;;
67762;SDS011;54566;52.022;5.582;2023-09-08T06:06:32;19.88;;;13.52;;
67762;SDS011;54566;52.022;5.582;2023-09-08T06:08:58;22.90;;;13.48;;
67762;SDS011;54566;52.022;5.582;2023-09-08T06:11:24;26.88;;;13.32;;
67762;SDS011;54566;52.022;5.582;2023-09-08T06:13:52;16.70;;;12.93;;
67762;SDS011;54566;52.022;5.582;2023-09-08T06:16:30;18.98;;;12.60;;
67762;SDS011;54566;52.022;5.582;2023-09-08T06:18:59;19.20;;;12.75;;
67762;SDS011;54566;52.022;5.582;2023-09-08T06:21:25;21.17;;;13.05;;
67762;SDS011;54566;52.022;5.582;2023-09-08T07:54:36;22.30;;;14.00;;
67762;SDS011;54566;52.022;5.582;2023-09-08T07:57:04;23.65;;;14.30;;
67762;SDS011;54566;52.022;5.582;2023-09-08T07:59:30;19.33;;;13.48;;
67762;SDS011;54566;52.022;5.582;2023-09-08T08:01:56;27.15;;;13.73;;
67762;SDS011;54566;52.022;5.582;2023-09-08T08:04:22;25.73;;;13.60;;
67762;SDS011;54566;52.022;5.582;2023-09-08T08:35:35;17.08;;;12.50;;
67762;SDS011;54566;52.022;5.582;2023-09-08T08:38:02;23.70;;;13.75;;
67762;SDS011;54566;52.022;5.582;2023-09-08T08:40:28;22.20;;;12.57;;
67762;SDS011;54566;52.022;5.582;2023-09-08T08:42:55;25.20;;;12.85;;
67762;SDS011;54566;52.022;5.582;2023-09-08T08:45:22;17.45;;;12.93;;
67762;SDS011;54566;52.022;5.582;2023-09-08T08:47:48;16.92;;;11.55;;
67762;SDS011;54566;52.022;5.582;2023-09-08T08:50:15;21.58;;;11.68;;
67762;SDS011;54566;52.022;5.582;2023-09-08T08:52:42;22.90;;;12.32;;
67762;SDS011;54566;52.022;5.582;2023-09-08T08:55:08;21.50;;;12.27;;
67762;SDS011;54566;52.022;5.582;2023-09-08T08:57:36;18.35;;;12.00;;
67762;SDS011;54566;52.022;5.582;2023-09-08T09:00:05;22.42;;;12.07;;
67762;SDS011;54566;52.022;5.582;2023-09-08T09:02:38;37.28;;;12.60;;
67762;SDS011;54566;52.022;5.582;2023-09-08T09:05:06;16.38;;;11.98;;
67762;SDS011;54566;52.022;5.582;2023-09-08T09:07:32;14.97;;;10.87;;
67762;SDS011;54566;52.022;5.582;2023-09-08T09:09:59;15.23;;;12.13;;
67762;SDS011;54566;52.022;5.582;2023-09-08T09:12:25;17.40;;;11.50;;
67762;SDS011;54566;52.022;5.582;2023-09-08T09:14:52;21.98;;;11.70;;
67762;SDS011;54566;52.022;5.582;2023-09-08T09:17:19;18.35;;;11.85;;
67762;SDS011;54566;52.022;5.582;2023-09-08T09:19:45;20.35;;;11.98;;
67762;SDS011;54566;52.022;5.582;2023-09-08T09:22:11;14.63;;;10.50;;
67762;SDS011;54566;52.022;5.582;2023-09-08T09:24:38;16.75;;;11.25;;
67762;SDS011;54566;52.022;5.582;2023-09-08T09:27:11;17.92;;;9.85;;
67762;SDS011;54566;52.022;5.582;2023-09-08T09:29:45;18.17;;;10.38;;
67762;SDS011;54566;52.022;5.582;2023-09-08T09:32:14;21.52;;;11.15;;
67762;SDS011;54566;52.022;5.582;2023-09-08T09:34:50;17.08;;;9.65;;
67762;SDS011;54566;52.022;5.582;2023-09-08T09:37:21;16.13;;;10.40;;
67762;SDS011;54566;52.022;5.582;2023-09-08T09:39:51;18.63;;;10.93;;
67762;SDS011;54566;52.022;5.582;2023-09-08T09:42:19;17.55;;;10.23;;
67762;SDS011;54566;52.022;5.582;2023-09-08T09:44:49;15.18;;;9.68;;
67762;SDS011;54566;52.022;5.582;2023-09-08T09:47:17;18.73;;;10.98;;
67762;SDS011;54566;52.022;5.582;2023-09-08T09:49:46;14.60;;;9.75;;
67762;SDS011;54566;52.022;5.582;2023-09-08T09:52:13;18.63;;;11.10;;
67762;SDS011;54566;52.022;5.582;2023-09-08T09:54:42;19.92;;;10.43;;
67762;SDS011;54566;52.022;5.582;2023-09-08T09:57:15;17.83;;;10.20;;
67762;SDS011;54566;52.022;5.582;2023-09-08T09:59:41;20.23;;;10.48;;
67762;SDS011;54566;52.022;5.582;2023-09-08T10:02:13;23.63;;;10.52;;
67762;SDS011;54566;52.022;5.582;2023-09-08T10:04:40;20.65;;;10.07;;
67762;SDS011;54566;52.022;5.582;2023-09-08T10:07:08;11.88;;;9.63;;
67762;SDS011;54566;52.022;5.582;2023-09-08T10:09:35;22.15;;;9.85;;
67762;SDS011;54566;52.022;5.582;2023-09-08T10:12:05;14.75;;;9.70;;
67762;SDS011;54566;52.022;5.582;2023-09-08T10:14:31;17.15;;;9.43;;
67762;SDS011;54566;52.022;5.582;2023-09-08T10:17:02;15.43;;;9.70;;
67762;SDS011;54566;52.022;5.582;2023-09-08T10:19:29;12.55;;;8.35;;
67762;SDS011;54566;52.022;5.582;2023-09-08T10:22:00;23.67;;;7.88;;
67762;SDS011;54566;52.022;5.582;2023-09-08T10:24:28;17.77;;;8.68;;
67762;SDS011;54566;52.022;5.582;2023-09-08T10:27:04;17.52;;;8.70;;
67762;SDS011;54566;52.022;5.582;2023-09-08T10:29:30;13.70;;;8.43;;
67762;SDS011;54566;52.022;5.582;2023-09-08T10:31:58;11.15;;;7.90;;
67762;SDS011;54566;52.022;5.582;2023-09-08T10:34:25;11.93;;;7.80;;
67762;SDS011;54566;52.022;5.582;2023-09-08T10:36:52;9.50;;;7.77;;
67762;SDS011;54566;52.022;5.582;2023-09-08T10:39:27;13.07;;;7.22;;
67762;SDS011;54566;52.022;5.582;2023-09-08T10:47:22;15.60;;;7.50;;
67762;SDS011;54566;52.022;5.582;2023-09-08T10:49:48;12.38;;;7.97;;
67762;SDS011;54566;52.022;5.582;2023-09-08T10:52:15;14.80;;;9.38;;
67762;SDS011;54566;52.022;5.582;2023-09-08T10:54:42;10.05;;;7.53;;
67762;SDS011;54566;52.022;5.582;2023-09-08T10:57:15;9.53;;;7.23;;
67762;SDS011;54566;52.022;5.582;2023-09-08T10:59:45;13.10;;;6.85;;
67762;SDS011;54566;52.022;5.582;2023-09-08T11:04:56;11.98;;;7.28;;
67762;SDS011;54566;52.022;5.582;2023-09-08T11:07:24;16.10;;;8.18;;
67762;SDS011;54566;52.022;5.582;2023-09-08T11:09:50;13.20;;;7.88;;
67762;SDS011;54566;52.022;5.582;2023-09-08T11:12:16;17.77;;;7.00;;
67762;SDS011;54566;52.022;5.582;2023-09-08T11:14:45;20.20;;;8.20;;
67762;SDS011;54566;52.022;5.582;2023-09-08T11:17:11;19.20;;;7.40;;
67762;SDS011;54566;52.022;5.582;2023-09-08T11:19:45;17.42;;;7.72;;
67762;SDS011;54566;52.022;5.582;2023-09-08T11:22:16;12.82;;;6.88;;
67762;SDS011;54566;52.022;5.582;2023-09-08T11:24:44;10.82;;;7.45;;
67762;SDS011;54566;52.022;5.582;2023-09-08T11:27:13;14.85;;;7.65;;
67762;SDS011;54566;52.022;5.582;2023-09-08T11:29:39;17.55;;;7.20;;
67762;SDS011;54566;52.022;5.582;2023-09-08T11:32:08;11.60;;;7.25;;
67762;SDS011;54566;52.022;5.582;2023-09-08T11:34:35;13.00;;;7.60;;
67762;SDS011;54566;52.022;5.582;2023-09-08T11:37:08;17.90;;;8.15;;
67762;SDS011;54566;52.022;5.582;2023-09-08T11:39:38;14.48;;;6.28;;
67762;SDS011;54566;52.022;5.582;2023-09-08T11:42:08;15.45;;;6.55;;
67762;SDS011;54566;52.022;5.582;2023-09-08T11:44:38;9.57;;;5.85;;
67762;SDS011;54566;52.022;5.582;2023-09-08T11:47:08;20.00;;;6.43;;
67762;SDS011;54566;52.022;5.582;2023-09-08T11:49:35;11.40;;;6.15;;
67762;SDS011;54566;52.022;5.582;2023-09-08T11:52:01;15.00;;;5.47;;
67762;SDS011;54566;52.022;5.582;2023-09-08T11:54:28;11.32;;;5.57;;
67762;SDS011;54566;52.022;5.582;2023-09-08T11:56:54;12.18;;;6.07;;
67762;SDS011;54566;52.022;5.582;2023-09-08T11:59:28;8.40;;;5.00;;
67762;SDS011;54566;52.022;5.582;2023-09-08T12:01:56;7.88;;;5.32;;
67762;SDS011;54566;52.022;5.582;2023-09-08T12:04:25;15.45;;;5.75;;
67762;SDS011;54566;52.022;5.582;2023-09-08T12:06:53;8.48;;;5.85;;
67762;SDS011;54566;52.022;5.582;2023-09-08T12:09:23;14.57;;;6.00;;
67762;SDS011;54566;52.022;5.582;2023-09-08T12:11:49;18.67;;;5.90;;
67762;SDS011;54566;52.022;5.582;2023-09-08T12:14:15;12.13;;;6.20;;
67762;SDS011;54566;52.022;5.582;2023-09-08T12:16:42;9.83;;;5.30;;
67762;SDS011;54566;52.022;5.582;2023-09-08T12:19:08;14.38;;;5.80;;
67762;SDS011;54566;52.022;5.582;2023-09-08T12:21:54;17.70;;;5.82;;
67762;SDS011;54566;52.022;5.582;2023-09-08T12:24:45;11.88;;;5.15;;
67762;SDS011;54566;52.022;5.582;2023-09-08T12:27:07;15.30;;;5.77;;
67762;SDS011;54566;52.022;5.582;2023-09-08T12:29:33;16.80;;;6.10;;
67762;SDS011;54566;52.022;5.582;2023-09-08T12:32:01;14.45;;;6.25;;
67762;SDS011;54566;52.022;5.582;2023-09-08T12:34:27;11.85;;;6.38;;
67762;SDS011;54566;52.022;5.582;2023-09-08T12:36:55;16.10;;;7.30;;
67762;SDS011;54566;52.022;5.582;2023-09-08T12:39:21;17.90;;;5.57;;
67762;SDS011;54566;52.022;5.582;2023-09-08T12:41:47;15.23;;;7.15;;
67762;SDS011;54566;52.022;5.582;2023-09-08T12:44:13;10.38;;;6.15;;
67762;SDS011;54566;52.022;5.582;2023-09-08T12:46:39;13.43;;;7.18;;
67762;SDS011;54566;52.022;5.582;2023-09-08T12:49:05;13.00;;;6.00;;
67762;SDS011;54566;52.022;5.582;2023-09-08T12:51:31;24.75;;;6.55;;
67762;SDS011;54566;52.022;5.582;2023-09-08T12:54:10;10.75;;;6.43;;
67762;SDS011;54566;52.022;5.582;2023-09-08T12:56:46;15.50;;;5.88;;
67762;SDS011;54566;52.022;5.582;2023-09-08T12:59:12;12.32;;;7.72;;
67762;SDS011;54566;52.022;5.582;2023-09-08T13:01:41;15.85;;;7.45;;
67762;SDS011;54566;52.022;5.582;2023-09-08T13:04:07;17.67;;;6.85;;
67762;SDS011;54566;52.022;5.582;2023-09-08T13:06:34;11.10;;;6.40;;
67762;SDS011;54566;52.022;5.582;2023-09-08T13:14:40;17.33;;;7.38;;
67762;SDS011;54566;52.022;5.582;2023-09-08T13:17:06;14.68;;;6.50;;
67762;SDS011;54566;52.022;5.582;2023-09-08T13:19:32;11.75;;;5.93;;
67762;SDS011;54566;52.022;5.582;2023-09-08T13:22:02;13.97;;;5.80;;
67762;SDS011;54566;52.022;5.582;2023-09-08T13:36:27;10.88;;;5.15;;
67762;SDS011;54566;52.022;5.582;2023-09-08T13:39:02;7.25;;;4.72;;
67762;SDS011;54566;52.022;5.582;2023-09-08T13:44:13;24.25;;;5.70;;
67762;SDS011;54566;52.022;5.582;2023-09-08T13:46:43;12.02;;;4.93;;
67762;SDS011;54566;52.022;5.582;2023-09-08T13:49:09;12.77;;;5.00;;
67762;SDS011;54566;52.022;5.582;2023-09-08T13:51:35;21.15;;;4.80;;
67762;SDS011;54566;52.022;5.582;2023-09-08T13:54:01;15.67;;;5.23;;
67762;SDS011;54566;52.022;5.582;2023-09-08T13:56:29;11.90;;;5.30;;
67762;SDS011;54566;52.022;5.582;2023-09-08T13:58:55;11.05;;;4.72;;
67762;SDS011;54566;52.022;5.582;2023-09-08T14:01:21;9.13;;;4.75;;
67762;SDS011;54566;52.022;5.582;2023-09-08T14:03:50;10.15;;;4.95;;
67762;SDS011;54566;52.022;5.582;2023-09-08T14:06:17;14.85;;;5.00;;
67762;SDS011;54566;52.022;5.582;2023-09-08T14:08:44;10.60;;;5.18;;
67762;SDS011;54566;52.022;5.582;2023-09-08T14:11:10;24.10;;;5.20;;
67762;SDS011;54566;52.022;5.582;2023-09-08T14:13:39;15.60;;;5.32;;
67762;SDS011;54566;52.022;5.582;2023-09-08T14:16:08;9.48;;;4.72;;
67762;SDS011;54566;52.022;5.582;2023-09-08T14:18:34;15.75;;;5.20;;
67762;SDS011;54566;52.022;5.582;2023-09-08T14:21:00;13.15;;;5.55;;
67762;SDS011;54566;52.022;5.582;2023-09-08T14:23:33;10.57;;;4.77;;
67762;SDS011;54566;52.022;5.582;2023-09-08T14:26:00;8.85;;;4.60;;
67762;SDS011;54566;52.022;5.582;2023-09-08T14:28:26;14.70;;;5.07;;
67762;SDS011;54566;52.022;5.582;2023-09-08T14:30:52;11.83;;;4.80;;
67762;SDS011;54566;52.022;5.582;2023-09-08T14:33:19;9.20;;;4.40;;
67762;SDS011;54566;52.022;5.582;2023-09-08T14:35:45;11.07;;;4.70;;
67762;SDS011;54566;52.022;5.582;2023-09-08T14:38:16;10.68;;;5.20;;
67762;SDS011;54566;52.022;5.582;2023-09-08T14:40:42;12.90;;;5.10;;
67762;SDS011;54566;52.022;5.582;2023-09-08T14:43:08;14.25;;;5.40;;
67762;SDS011;54566;52.022;5.582;2023-09-08T14:45:35;11.63;;;4.82;;
67762;SDS011;54566;52.022;5.582;2023-09-08T14:48:01;13.52;;;4.63;;
67762;SDS011;54566;52.022;5.582;2023-09-08T14:50:27;11.15;;;5.15;;
67762;SDS011;54566;52.022;5.582;2023-09-08T14:52:53;12.88;;;5.00;;
67762;SDS011;54566;52.022;5.582;2023-09-08T14:55:19;11.57;;;4.82;;
67762;SDS011;54566;52.022;5.582;2023-09-08T14:57:45;8.75;;;5.10;;
67762;SDS011;54566;52.022;5.582;2023-09-08T15:00:11;10.05;;;4.68;;
67762;SDS011;54566;52.022;5.582;2023-09-08T15:02:37;11.93;;;4.80;;
67762;SDS011;54566;52.022;5.582;2023-09-08T15:05:04;7.97;;;4.93;;
67762;SDS011;54566;52.022;5.582;2023-09-08T15:07:30;10.48;;;4.28;;
67762;SDS011;54566;52.022;5.582;2023-09-08T15:09:56;10.00;;;3.97;;
67762;SDS011;54566;52.022;5.582;2023-09-08T15:12:22;9.17;;;4.37;;
67762;SDS011;54566;52.022;5.582;2023-09-08T15:14:48;6.90;;;3.92;;
67762;SDS011;54566;52.022;5.582;2023-09-08T15:17:16;6.50;;;3.90;;
67762;SDS011;54566;52.022;5.582;2023-09-08T15:19:43;7.17;;;4.03;;
67762;SDS011;54566;52.022;5.582;2023-09-08T15:22:09;12.65;;;4.53;;
67762;SDS011;54566;52.022;5.582;2023-09-08T15:24:35;12.68;;;4.20;;
67762;SDS011;54566;52.022;5.582;2023-09-08T15:27:04;7.20;;;3.92;;
67762;SDS011;54566;52.022;5.582;2023-09-08T15:29:30;13.88;;;4.18;;
67762;SDS011;54566;52.022;5.582;2023-09-08T15:31:56;8.55;;;4.32;;
67762;SDS011;54566;52.022;5.582;2023-09-08T15:34:22;11.60;;;4.40;;
67762;SDS011;54566;52.022;5.582;2023-09-08T15:36:48;12.38;;;4.30;;
67762;SDS011;54566;52.022;5.582;2023-09-08T15:39:14;8.85;;;4.30;;
67762;SDS011;54566;52.022;5.582;2023-09-08T15:41:41;7.53;;;4.05;;
67762;SDS011;54566;52.022;5.582;2023-09-08T15:44:07;11.82;;;4.60;;
67762;SDS011;54566;52.022;5.582;2023-09-08T15:46:33;14.98;;;4.35;;
67762;SDS011;54566;52.022;5.582;2023-09-08T15:51:57;13.25;;;4.57;;
67762;SDS011;54566;52.022;5.582;2023-09-08T15:54:25;8.50;;;4.68;;
67762;SDS011;54566;52.022;5.582;2023-09-08T15:56:56;12.63;;;5.50;;
67762;SDS011;54566;52.022;5.582;2023-09-08T15:59:24;7.25;;;4.65;;
67762;SDS011;54566;52.022;5.582;2023-09-08T16:01:53;10.35;;;4.60;;
67762;SDS011;54566;52.022;5.582;2023-09-08T16:04:19;18.40;;;5.75;;
67762;SDS011;54566;52.022;5.582;2023-09-08T16:06:47;11.88;;;4.70;;
67762;SDS011;54566;52.022;5.582;2023-09-08T16:09:23;8.77;;;4.63;;
67762;SDS011;54566;52.022;5.582;2023-09-08T16:11:49;12.82;;;4.82;;
67762;SDS011;54566;52.022;5.582;2023-09-08T16:14:15;10.82;;;5.53;;
67762;SDS011;54566;52.022;5.582;2023-09-08T16:16:41;11.90;;;4.53;;
67762;SDS011;54566;52.022;5.582;2023-09-08T16:19:11;13.80;;;4.70;;
67762;SDS011;54566;52.022;5.582;2023-09-08T16:21:39;9.82;;;4.70;;
67762;SDS011;54566;52.022;5.582;2023-09-08T16:24:13;8.80;;;4.78;;
67762;SDS011;54566;52.022;5.582;2023-09-08T16:26:41;7.60;;;4.97;;
67762;SDS011;54566;52.022;5.582;2023-09-08T16:29:07;13.48;;;5.35;;
67762;SDS011;54566;52.022;5.582;2023-09-08T16:31:33;11.82;;;4.90;;
67762;SDS011;54566;52.022;5.582;2023-09-08T16:34:00;10.23;;;4.90;;
67762;SDS011;54566;52.022;5.582;2023-09-08T16:36:26;17.67;;;5.78;;
67762;SDS011;54566;52.022;5.582;2023-09-08T16:38:52;11.82;;;5.38;;
67762;SDS011;54566;52.022;5.582;2023-09-08T16:41:18;8.82;;;5.03;;
67762;SDS011;54566;52.022;5.582;2023-09-08T16:43:44;8.80;;;4.78;;
67762;SDS011;54566;52.022;5.582;2023-09-08T16:46:10;10.03;;;4.87;;
67762;SDS011;54566;52.022;5.582;2023-09-08T16:48:39;10.02;;;5.50;;
67762;SDS011;54566;52.022;5.582;2023-09-08T16:51:07;8.00;;;5.35;;
67762;SDS011;54566;52.022;5.582;2023-09-08T16:53:34;14.00;;;5.18;;
67762;SDS011;54566;52.022;5.582;2023-09-08T16:56:00;8.27;;;5.03;;
67762;SDS011;54566;52.022;5.582;2023-09-08T16:58:30;13.52;;;5.03;;
67762;SDS011;54566;52.022;5.582;2023-09-08T17:00:56;17.75;;;5.38;;
67762;SDS011;54566;52.022;5.582;2023-09-08T17:03:27;9.50;;;5.70;;